sensor_id;sensor_type;location;lat;lon;timestamp;temperature;humidity
43183;DHT22;28802;38.578;-0.066;2023-02-28T00:00:36;4.80;99.90
43183;DHT22;28802;38.578;-0.066;2023-02-28T00:03:05;4.80;99.90
43183;DHT22;28802;38.578;-0.066;2023-02-28T00:05:32;4.50;99.90
43183;DHT22;28802;38.578;-0.066;2023-02-28T00:08:01;4.50;99.90
43183;DHT22;28802;38.578;-0.066;2023-02-28T00:10:29;4.40;99.90
43183;DHT22;28802;38.578;-0.066;2023-02-28T00:13:03;4.40;99.90
43183;DHT22;28802;38.578;-0.066;2023-02-28T00:15:32;4.60;99.90
43183;DHT22;28802;38.578;-0.066;2023-02-28T00:17:59;4.50;99.90
43183;DHT22;28802;38.578;-0.066;2023-02-28T00:20:25;4.60;99.90
43183;DHT22;28802;38.578;-0.066;2023-02-28T00:22:54;4.80;99.90
43183;DHT22;28802;38.578;-0.066;2023-02-28T00:25:23;4.90;99.90
43183;DHT22;28802;38.578;-0.066;2023-02-28T00:27:49;4.80;99.90
43183;DHT22;28802;38.578;-0.066;2023-02-28T00:30:20;4.50;99.90
43183;DHT22;28802;38.578;-0.066;2023-02-28T00:32:48;4.40;99.90
43183;DHT22;28802;38.578;-0.066;2023-02-28T00:35:14;4.30;99.90
43183;DHT22;28802;38.578;-0.066;2023-02-28T00:37:41;4.40;99.90
43183;DHT22;28802;38.578;-0.066;2023-02-28T00:40:08;4.60;99.90
43183;DHT22;28802;38.578;-0.066;2023-02-28T00:42:34;4.90;99.90
43183;DHT22;28802;38.578;-0.066;2023-02-28T00:45:01;4.70;99.90
43183;DHT22;28802;38.578;-0.066;2023-02-28T00:47:27;4.30;99.90
43183;DHT22;28802;38.578;-0.066;2023-02-28T00:49:54;4.20;99.90
43183;DHT22;28802;38.578;-0.066;2023-02-28T00:52:20;4.50;99.90
43183;DHT22;28802;38.578;-0.066;2023-02-28T00:54:47;4.40;99.90
43183;DHT22;28802;38.578;-0.066;2023-02-28T00:57:14;4.20;99.90
43183;DHT22;28802;38.578;-0.066;2023-02-28T00:59:40;4.30;99.90
43183;DHT22;28802;38.578;-0.066;2023-02-28T01:02:06;4.50;99.90
43183;DHT22;28802;38.578;-0.066;2023-02-28T01:04:32;4.60;99.90
43183;DHT22;28802;38.578;-0.066;2023-02-28T01:07:00;4.40;99.90
43183;DHT22;28802;38.578;-0.066;2023-02-28T01:09:28;4.30;99.90
43183;DHT22;28802;38.578;-0.066;2023-02-28T01:11:54;4.30;99.90
43183;DHT22;28802;38.578;-0.066;2023-02-28T01:14:20;4.30;99.90
43183;DHT22;28802;38.578;-0.066;2023-02-28T01:16:46;4.10;99.90
43183;DHT22;28802;38.578;-0.066;2023-02-28T01:19:12;3.90;99.90
43183;DHT22;28802;38.578;-0.066;2023-02-28T01:21:38;3.80;99.90
43183;DHT22;28802;38.578;-0.066;2023-02-28T01:24:07;3.90;99.90
43183;DHT22;28802;38.578;-0.066;2023-02-28T01:26:44;3.90;99.90
43183;DHT22;28802;38.578;-0.066;2023-02-28T01:29:10;4.00;99.90
43183;DHT22;28802;38.578;-0.066;2023-02-28T01:31:36;4.00;99.90
43183;DHT22;28802;38.578;-0.066;2023-02-28T01:34:03;3.80;99.90
43183;DHT22;28802;38.578;-0.066;2023-02-28T01:36:29;3.80;99.90
43183;DHT22;28802;38.578;-0.066;2023-02-28T01:38:55;3.70;99.90
43183;DHT22;28802;38.578;-0.066;2023-02-28T01:41:27;3.70;99.90
43183;DHT22;28802;38.578;-0.066;2023-02-28T01:44:06;3.70;99.90
43183;DHT22;28802;38.578;-0.066;2023-02-28T01:46:34;3.70;99.90
43183;DHT22;28802;38.578;-0.066;2023-02-28T01:49:02;3.90;99.90
43183;DHT22;28802;38.578;-0.066;2023-02-28T01:51:48;4.00;99.90
43183;DHT22;28802;38.578;-0.066;2023-02-28T01:54:22;4.00;99.90
43183;DHT22;28802;38.578;-0.066;2023-02-28T01:57:00;4.00;99.90
43183;DHT22;28802;38.578;-0.066;2023-02-28T01:59:42;3.80;99.90
43183;DHT22;28802;38.578;-0.066;2023-02-28T02:02:13;3.70;99.90
43183;DHT22;28802;38.578;-0.066;2023-02-28T02:05:03;3.90;99.90
43183;DHT22;28802;38.578;-0.066;2023-02-28T02:07:32;3.80;99.90
43183;DHT22;28802;38.578;-0.066;2023-02-28T02:10:19;3.60;99.90
43183;DHT22;28802;38.578;-0.066;2023-02-28T02:13:14;3.60;99.90
43183;DHT22;28802;38.578;-0.066;2023-02-28T02:18:45;3.90;99.90
43183;DHT22;28802;38.578;-0.066;2023-02-28T02:22:04;3.80;99.90
43183;DHT22;28802;38.578;-0.066;2023-02-28T02:24:35;3.90;99.90
43183;DHT22;28802;38.578;-0.066;2023-02-28T02:30:14;3.60;99.90
43183;DHT22;28802;38.578;-0.066;2023-02-28T02:36:00;3.60;99.90
43183;DHT22;28802;38.578;-0.066;2023-02-28T02:46:33;3.40;99.90
43183;DHT22;28802;38.578;-0.066;2023-02-28T02:49:06;3.50;99.90
43183;DHT22;28802;38.578;-0.066;2023-02-28T02:51:35;3.40;99.90
43183;DHT22;28802;38.578;-0.066;2023-02-28T02:56:33;3.30;99.90
43183;DHT22;28802;38.578;-0.066;2023-02-28T02:59:04;3.20;99.90
43183;DHT22;28802;38.578;-0.066;2023-02-28T03:01:35;3.00;99.90
43183;DHT22;28802;38.578;-0.066;2023-02-28T03:04:11;3.00;99.90
43183;DHT22;28802;38.578;-0.066;2023-02-28T03:06:38;3.30;99.90
43183;DHT22;28802;38.578;-0.066;2023-02-28T03:09:04;3.20;99.90
43183;DHT22;28802;38.578;-0.066;2023-02-28T03:11:31;3.40;99.90
43183;DHT22;28802;38.578;-0.066;2023-02-28T03:24:55;3.30;99.90
43183;DHT22;28802;38.578;-0.066;2023-02-28T03:27:47;3.60;99.90
43183;DHT22;28802;38.578;-0.066;2023-02-28T03:30:28;3.40;99.90
43183;DHT22;28802;38.578;-0.066;2023-02-28T03:33:18;3.00;99.90
43183;DHT22;28802;38.578;-0.066;2023-02-28T03:35:52;3.00;99.90
43183;DHT22;28802;38.578;-0.066;2023-02-28T03:41:19;2.70;99.90
43183;DHT22;28802;38.578;-0.066;2023-02-28T03:43:57;2.90;99.90
43183;DHT22;28802;38.578;-0.066;2023-02-28T03:46:28;3.00;99.90
43183;DHT22;28802;38.578;-0.066;2023-02-28T03:49:01;2.90;99.90
43183;DHT22;28802;38.578;-0.066;2023-02-28T03:51:29;2.90;99.90
43183;DHT22;28802;38.578;-0.066;2023-02-28T03:54:05;2.80;99.90
43183;DHT22;28802;38.578;-0.066;2023-02-28T03:57:10;2.70;99.90
43183;DHT22;28802;38.578;-0.066;2023-02-28T04:01:58;2.80;99.90
43183;DHT22;28802;38.578;-0.066;2023-02-28T04:04:25;2.80;99.90
43183;DHT22;28802;38.578;-0.066;2023-02-28T04:06:52;2.60;99.90
43183;DHT22;28802;38.578;-0.066;2023-02-28T04:09:19;2.80;99.90
43183;DHT22;28802;38.578;-0.066;2023-02-28T04:11:45;2.90;99.90
43183;DHT22;28802;38.578;-0.066;2023-02-28T04:14:12;3.10;99.90
43183;DHT22;28802;38.578;-0.066;2023-02-28T04:16:40;3.10;99.90
43183;DHT22;28802;38.578;-0.066;2023-02-28T04:19:08;3.30;99.90
43183;DHT22;28802;38.578;-0.066;2023-02-28T04:21:39;3.40;99.90
43183;DHT22;28802;38.578;-0.066;2023-02-28T04:24:07;3.10;99.90
43183;DHT22;28802;38.578;-0.066;2023-02-28T04:26:35;2.90;99.90
43183;DHT22;28802;38.578;-0.066;2023-02-28T04:29:04;3.00;99.90
43183;DHT22;28802;38.578;-0.066;2023-02-28T04:31:30;3.00;99.90
43183;DHT22;28802;38.578;-0.066;2023-02-28T04:33:56;2.90;99.90
43183;DHT22;28802;38.578;-0.066;2023-02-28T04:36:23;2.80;99.90
43183;DHT22;28802;38.578;-0.066;2023-02-28T04:38:49;2.80;99.90
43183;DHT22;28802;38.578;-0.066;2023-02-28T04:41:15;2.70;99.90
43183;DHT22;28802;38.578;-0.066;2023-02-28T04:43:42;2.80;99.90
43183;DHT22;28802;38.578;-0.066;2023-02-28T04:46:08;2.80;99.90
43183;DHT22;28802;38.578;-0.066;2023-02-28T04:48:36;2.90;99.90
43183;DHT22;28802;38.578;-0.066;2023-02-28T04:53:29;3.20;99.90
43183;DHT22;28802;38.578;-0.066;2023-02-28T04:55:59;3.30;99.90
43183;DHT22;28802;38.578;-0.066;2023-02-28T04:58:25;3.20;99.90
43183;DHT22;28802;38.578;-0.066;2023-02-28T05:00:54;3.20;99.90
43183;DHT22;28802;38.578;-0.066;2023-02-28T05:03:26;3.20;99.90
43183;DHT22;28802;38.578;-0.066;2023-02-28T05:05:52;3.20;99.90
43183;DHT22;28802;38.578;-0.066;2023-02-28T05:08:18;3.40;99.90
43183;DHT22;28802;38.578;-0.066;2023-02-28T05:10:44;3.60;99.90
43183;DHT22;28802;38.578;-0.066;2023-02-28T05:13:13;3.70;99.90
43183;DHT22;28802;38.578;-0.066;2023-02-28T05:15:39;3.70;99.90
43183;DHT22;28802;38.578;-0.066;2023-02-28T05:18:05;4.10;99.90
43183;DHT22;28802;38.578;-0.066;2023-02-28T05:20:31;4.30;99.90
43183;DHT22;28802;38.578;-0.066;2023-02-28T05:22:58;4.10;99.90
43183;DHT22;28802;38.578;-0.066;2023-02-28T05:25:24;4.10;99.90
43183;DHT22;28802;38.578;-0.066;2023-02-28T05:27:50;4.10;99.90
43183;DHT22;28802;38.578;-0.066;2023-02-28T05:30:16;4.20;99.90
43183;DHT22;28802;38.578;-0.066;2023-02-28T05:32:43;4.30;99.90
43183;DHT22;28802;38.578;-0.066;2023-02-28T05:35:10;4.20;99.90
43183;DHT22;28802;38.578;-0.066;2023-02-28T05:37:37;4.30;99.90
43183;DHT22;28802;38.578;-0.066;2023-02-28T05:40:05;4.40;99.90
43183;DHT22;28802;38.578;-0.066;2023-02-28T05:42:37;4.20;99.90
43183;DHT22;28802;38.578;-0.066;2023-02-28T05:45:04;4.00;99.90
43183;DHT22;28802;38.578;-0.066;2023-02-28T05:47:31;4.00;99.90
43183;DHT22;28802;38.578;-0.066;2023-02-28T05:49:57;3.90;99.90
43183;DHT22;28802;38.578;-0.066;2023-02-28T05:52:22;3.90;99.90
43183;DHT22;28802;38.578;-0.066;2023-02-28T05:54:49;3.80;99.90
43183;DHT22;28802;38.578;-0.066;2023-02-28T05:57:14;4.00;99.90
43183;DHT22;28802;38.578;-0.066;2023-02-28T05:59:40;4.00;99.90
43183;DHT22;28802;38.578;-0.066;2023-02-28T06:02:11;4.10;99.90
43183;DHT22;28802;38.578;-0.066;2023-02-28T06:04:38;4.20;99.90
43183;DHT22;28802;38.578;-0.066;2023-02-28T06:07:04;4.40;99.90
43183;DHT22;28802;38.578;-0.066;2023-02-28T06:09:30;4.70;99.90
43183;DHT22;28802;38.578;-0.066;2023-02-28T06:12:00;5.30;99.90
43183;DHT22;28802;38.578;-0.066;2023-02-28T06:14:29;5.70;99.90
43183;DHT22;28802;38.578;-0.066;2023-02-28T06:16:57;6.00;99.90
43183;DHT22;28802;38.578;-0.066;2023-02-28T06:19:24;6.30;99.90
43183;DHT22;28802;38.578;-0.066;2023-02-28T06:21:52;6.50;99.90
43183;DHT22;28802;38.578;-0.066;2023-02-28T06:24:19;6.70;99.90
43183;DHT22;28802;38.578;-0.066;2023-02-28T06:26:45;6.80;99.90
43183;DHT22;28802;38.578;-0.066;2023-02-28T06:29:11;7.00;99.90
43183;DHT22;28802;38.578;-0.066;2023-02-28T06:31:37;7.10;99.90
43183;DHT22;28802;38.578;-0.066;2023-02-28T06:34:04;7.20;99.90
43183;DHT22;28802;38.578;-0.066;2023-02-28T06:36:30;7.20;99.90
43183;DHT22;28802;38.578;-0.066;2023-02-28T06:38:56;7.20;99.90
43183;DHT22;28802;38.578;-0.066;2023-02-28T06:41:24;7.20;99.90
43183;DHT22;28802;38.578;-0.066;2023-02-28T06:43:51;7.30;99.90
43183;DHT22;28802;38.578;-0.066;2023-02-28T06:46:20;7.30;99.90
43183;DHT22;28802;38.578;-0.066;2023-02-28T06:48:53;7.30;99.90
43183;DHT22;28802;38.578;-0.066;2023-02-28T06:51:20;7.30;99.90
43183;DHT22;28802;38.578;-0.066;2023-02-28T06:53:48;7.30;99.90
43183;DHT22;28802;38.578;-0.066;2023-02-28T06:56:15;7.40;99.90
43183;DHT22;28802;38.578;-0.066;2023-02-28T06:58:42;7.40;99.90
43183;DHT22;28802;38.578;-0.066;2023-02-28T07:01:11;7.50;99.90
43183;DHT22;28802;38.578;-0.066;2023-02-28T07:03:39;7.50;99.90
43183;DHT22;28802;38.578;-0.066;2023-02-28T07:06:05;7.40;99.90
43183;DHT22;28802;38.578;-0.066;2023-02-28T07:08:32;7.50;99.90
43183;DHT22;28802;38.578;-0.066;2023-02-28T07:10:58;7.50;99.90
43183;DHT22;28802;38.578;-0.066;2023-02-28T07:13:24;7.60;99.90
43183;DHT22;28802;38.578;-0.066;2023-02-28T07:16:05;7.70;99.90
43183;DHT22;28802;38.578;-0.066;2023-02-28T07:18:35;7.70;99.90
43183;DHT22;28802;38.578;-0.066;2023-02-28T07:21:02;7.70;99.90
43183;DHT22;28802;38.578;-0.066;2023-02-28T07:23:28;7.70;99.90
43183;DHT22;28802;38.578;-0.066;2023-02-28T07:25:54;7.70;99.90
43183;DHT22;28802;38.578;-0.066;2023-02-28T07:28:20;7.80;99.90
43183;DHT22;28802;38.578;-0.066;2023-02-28T07:30:46;7.80;99.90
43183;DHT22;28802;38.578;-0.066;2023-02-28T07:33:13;7.60;99.90
43183;DHT22;28802;38.578;-0.066;2023-02-28T07:35:39;7.90;99.90
43183;DHT22;28802;38.578;-0.066;2023-02-28T07:38:05;9.10;99.90
43183;DHT22;28802;38.578;-0.066;2023-02-28T07:40:34;10.60;99.90
43183;DHT22;28802;38.578;-0.066;2023-02-28T07:43:01;11.20;99.90
43183;DHT22;28802;38.578;-0.066;2023-02-28T07:45:28;11.10;99.90
43183;DHT22;28802;38.578;-0.066;2023-02-28T07:47:55;11.80;99.90
43183;DHT22;28802;38.578;-0.066;2023-02-28T07:50:21;12.90;99.90
43183;DHT22;28802;38.578;-0.066;2023-02-28T07:52:47;13.60;97.50
43183;DHT22;28802;38.578;-0.066;2023-02-28T07:55:14;14.30;95.70
43183;DHT22;28802;38.578;-0.066;2023-02-28T07:57:44;15.10;94.20
43183;DHT22;28802;38.578;-0.066;2023-02-28T08:00:37;15.80;92.10
43183;DHT22;28802;38.578;-0.066;2023-02-28T08:03:03;15.70;88.30
43183;DHT22;28802;38.578;-0.066;2023-02-28T08:05:29;15.00;88.30
43183;DHT22;28802;38.578;-0.066;2023-02-28T08:07:56;15.60;86.80
43183;DHT22;28802;38.578;-0.066;2023-02-28T08:10:22;15.80;86.70
43183;DHT22;28802;38.578;-0.066;2023-02-28T08:12:49;16.60;83.60
43183;DHT22;28802;38.578;-0.066;2023-02-28T08:15:19;17.60;81.00
43183;DHT22;28802;38.578;-0.066;2023-02-28T08:17:45;18.30;76.00
43183;DHT22;28802;38.578;-0.066;2023-02-28T08:20:11;19.00;73.60
43183;DHT22;28802;38.578;-0.066;2023-02-28T08:22:37;19.20;71.00
43183;DHT22;28802;38.578;-0.066;2023-02-28T08:25:03;19.60;68.40
43183;DHT22;28802;38.578;-0.066;2023-02-28T08:27:29;19.50;67.20
43183;DHT22;28802;38.578;-0.066;2023-02-28T08:29:55;19.50;66.60
43183;DHT22;28802;38.578;-0.066;2023-02-28T08:32:21;19.20;65.50
43183;DHT22;28802;38.578;-0.066;2023-02-28T08:34:47;19.10;63.60
43183;DHT22;28802;38.578;-0.066;2023-02-28T08:37:13;18.50;60.10
43183;DHT22;28802;38.578;-0.066;2023-02-28T08:39:39;18.40;62.00
43183;DHT22;28802;38.578;-0.066;2023-02-28T08:42:05;18.90;59.50
43183;DHT22;28802;38.578;-0.066;2023-02-28T08:44:31;18.90;60.80
43183;DHT22;28802;38.578;-0.066;2023-02-28T08:46:57;19.10;58.20
43183;DHT22;28802;38.578;-0.066;2023-02-28T08:49:23;19.20;58.20
43183;DHT22;28802;38.578;-0.066;2023-02-28T08:51:52;18.30;58.80
43183;DHT22;28802;38.578;-0.066;2023-02-28T08:54:23;18.10;61.40
43183;DHT22;28802;38.578;-0.066;2023-02-28T08:56:50;18.20;59.30
43183;DHT22;28802;38.578;-0.066;2023-02-28T08:59:16;18.40;61.00
43183;DHT22;28802;38.578;-0.066;2023-02-28T09:01:42;18.60;60.50
43183;DHT22;28802;38.578;-0.066;2023-02-28T09:04:18;19.30;59.70
43183;DHT22;28802;38.578;-0.066;2023-02-28T09:06:46;19.90;58.50
43183;DHT22;28802;38.578;-0.066;2023-02-28T09:09:15;20.00;58.90
43183;DHT22;28802;38.578;-0.066;2023-02-28T09:11:41;20.30;58.20
43183;DHT22;28802;38.578;-0.066;2023-02-28T09:14:07;20.60;58.00
43183;DHT22;28802;38.578;-0.066;2023-02-28T09:16:34;20.80;57.00
43183;DHT22;28802;38.578;-0.066;2023-02-28T09:19:00;20.90;57.00
43183;DHT22;28802;38.578;-0.066;2023-02-28T09:21:27;20.50;57.80
43183;DHT22;28802;38.578;-0.066;2023-02-28T09:23:53;20.10;58.90
43183;DHT22;28802;38.578;-0.066;2023-02-28T09:26:27;20.20;58.70
43183;DHT22;28802;38.578;-0.066;2023-02-28T09:28:53;20.00;59.20
43183;DHT22;28802;38.578;-0.066;2023-02-28T09:31:25;20.40;59.70
43183;DHT22;28802;38.578;-0.066;2023-02-28T09:33:56;19.90;61.00
43183;DHT22;28802;38.578;-0.066;2023-02-28T09:36:24;20.10;61.20
43183;DHT22;28802;38.578;-0.066;2023-02-28T09:38:50;20.00;60.00
43183;DHT22;28802;38.578;-0.066;2023-02-28T09:41:23;19.30;62.00
43183;DHT22;28802;38.578;-0.066;2023-02-28T09:43:59;19.60;62.00
43183;DHT22;28802;38.578;-0.066;2023-02-28T09:46:40;20.10;61.10
43183;DHT22;28802;38.578;-0.066;2023-02-28T09:49:16;20.30;60.00
43183;DHT22;28802;38.578;-0.066;2023-02-28T09:51:59;19.90;59.60
43183;DHT22;28802;38.578;-0.066;2023-02-28T09:54:30;19.30;61.50
43183;DHT22;28802;38.578;-0.066;2023-02-28T09:57:01;19.80;62.90
43183;DHT22;28802;38.578;-0.066;2023-02-28T10:02:39;20.50;61.00
43183;DHT22;28802;38.578;-0.066;2023-02-28T10:05:08;20.70;60.10
43183;DHT22;28802;38.578;-0.066;2023-02-28T10:08:14;20.30;62.30
43183;DHT22;28802;38.578;-0.066;2023-02-28T10:10:49;20.30;62.20
43183;DHT22;28802;38.578;-0.066;2023-02-28T10:13:35;19.20;63.80
43183;DHT22;28802;38.578;-0.066;2023-02-28T10:16:15;19.30;63.50
43183;DHT22;28802;38.578;-0.066;2023-02-28T10:21:59;18.60;64.00
43183;DHT22;28802;38.578;-0.066;2023-02-28T10:24:50;18.40;66.10
43183;DHT22;28802;38.578;-0.066;2023-02-28T10:29:54;17.70;69.40
43183;DHT22;28802;38.578;-0.066;2023-02-28T10:32:23;17.50;70.30
43183;DHT22;28802;38.578;-0.066;2023-02-28T10:35:14;17.30;71.00
43183;DHT22;28802;38.578;-0.066;2023-02-28T10:37:42;17.90;71.70
43183;DHT22;28802;38.578;-0.066;2023-02-28T10:42:59;18.70;68.70
43183;DHT22;28802;38.578;-0.066;2023-02-28T10:45:30;19.20;67.00
43183;DHT22;28802;38.578;-0.066;2023-02-28T10:48:01;19.40;66.60
43183;DHT22;28802;38.578;-0.066;2023-02-28T10:58:47;19.60;63.80
43183;DHT22;28802;38.578;-0.066;2023-02-28T11:01:38;19.20;65.30
43183;DHT22;28802;38.578;-0.066;2023-02-28T11:04:36;19.40;65.50
43183;DHT22;28802;38.578;-0.066;2023-02-28T11:09:40;20.50;64.60
43183;DHT22;28802;38.578;-0.066;2023-02-28T11:12:43;20.50;64.20
43183;DHT22;28802;38.578;-0.066;2023-02-28T11:15:45;20.50;64.00
43183;DHT22;28802;38.578;-0.066;2023-02-28T11:20:53;20.70;63.30
43183;DHT22;28802;38.578;-0.066;2023-02-28T11:23:20;20.20;62.60
43183;DHT22;28802;38.578;-0.066;2023-02-28T11:25:52;20.70;62.90
43183;DHT22;28802;38.578;-0.066;2023-02-28T11:28:33;20.40;62.00
43183;DHT22;28802;38.578;-0.066;2023-02-28T11:33:44;20.00;64.60
43183;DHT22;28802;38.578;-0.066;2023-02-28T11:36:27;20.30;64.40
43183;DHT22;28802;38.578;-0.066;2023-02-28T11:39:07;20.50;62.30
43183;DHT22;28802;38.578;-0.066;2023-02-28T11:41:57;21.00;61.30
43183;DHT22;28802;38.578;-0.066;2023-02-28T11:50:01;21.60;59.60
43183;DHT22;28802;38.578;-0.066;2023-02-28T11:52:50;21.60;60.40
43183;DHT22;28802;38.578;-0.066;2023-02-28T11:55:19;21.00;62.30
43183;DHT22;28802;38.578;-0.066;2023-02-28T11:58:00;21.30;60.70
43183;DHT22;28802;38.578;-0.066;2023-02-28T12:03:56;20.80;62.50
43183;DHT22;28802;38.578;-0.066;2023-02-28T12:18:01;21.40;62.90
43183;DHT22;28802;38.578;-0.066;2023-02-28T12:20:45;20.70;61.70
43183;DHT22;28802;38.578;-0.066;2023-02-28T12:28:27;19.70;63.40
43183;DHT22;28802;38.578;-0.066;2023-02-28T12:31:36;20.60;63.30
43183;DHT22;28802;38.578;-0.066;2023-02-28T12:34:09;20.30;63.10
43183;DHT22;28802;38.578;-0.066;2023-02-28T12:36:37;19.60;65.90
43183;DHT22;28802;38.578;-0.066;2023-02-28T12:39:16;19.10;65.40
43183;DHT22;28802;38.578;-0.066;2023-02-28T12:42:00;19.30;64.90
43183;DHT22;28802;38.578;-0.066;2023-02-28T12:44:51;19.20;65.60
43183;DHT22;28802;38.578;-0.066;2023-02-28T12:47:18;18.40;66.70
43183;DHT22;28802;38.578;-0.066;2023-02-28T12:50:08;18.20;67.00
43183;DHT22;28802;38.578;-0.066;2023-02-28T12:55:23;18.80;67.20
43183;DHT22;28802;38.578;-0.066;2023-02-28T13:04:02;17.70;73.40
43183;DHT22;28802;38.578;-0.066;2023-02-28T13:11:45;15.30;83.50
43183;DHT22;28802;38.578;-0.066;2023-02-28T13:14:20;15.10;85.80
43183;DHT22;28802;38.578;-0.066;2023-02-28T13:19:43;14.80;83.40
43183;DHT22;28802;38.578;-0.066;2023-02-28T13:25:00;14.50;85.80
43183;DHT22;28802;38.578;-0.066;2023-02-28T13:27:38;14.20;89.20
43183;DHT22;28802;38.578;-0.066;2023-02-28T13:41:50;14.50;92.40
43183;DHT22;28802;38.578;-0.066;2023-02-28T13:44:21;14.30;92.20
43183;DHT22;28802;38.578;-0.066;2023-02-28T13:51:51;13.90;96.20
43183;DHT22;28802;38.578;-0.066;2023-02-28T13:57:11;13.60;96.00
43183;DHT22;28802;38.578;-0.066;2023-02-28T14:00:13;13.70;96.80
43183;DHT22;28802;38.578;-0.066;2023-02-28T14:05:22;14.20;94.50
43183;DHT22;28802;38.578;-0.066;2023-02-28T14:07:59;14.10;93.80
43183;DHT22;28802;38.578;-0.066;2023-02-28T14:10:44;14.20;93.90
43183;DHT22;28802;38.578;-0.066;2023-02-28T14:13:36;14.20;94.70
43183;DHT22;28802;38.578;-0.066;2023-02-28T14:16:01;14.20;96.40
43183;DHT22;28802;38.578;-0.066;2023-02-28T14:18:31;14.20;98.10
43183;DHT22;28802;38.578;-0.066;2023-02-28T14:21:25;14.30;96.00
43183;DHT22;28802;38.578;-0.066;2023-02-28T14:29:45;14.30;95.90
43183;DHT22;28802;38.578;-0.066;2023-02-28T14:39:01;13.80;97.50
43183;DHT22;28802;38.578;-0.066;2023-02-28T14:41:38;13.90;98.40
43183;DHT22;28802;38.578;-0.066;2023-02-28T14:44:31;13.80;99.90
43183;DHT22;28802;38.578;-0.066;2023-02-28T14:47:01;13.90;98.80
43183;DHT22;28802;38.578;-0.066;2023-02-28T14:49:35;14.10;98.90
43183;DHT22;28802;38.578;-0.066;2023-02-28T14:52:32;13.70;99.90
43183;DHT22;28802;38.578;-0.066;2023-02-28T14:55:10;13.60;99.90
43183;DHT22;28802;38.578;-0.066;2023-02-28T14:57:56;13.80;99.90
43183;DHT22;28802;38.578;-0.066;2023-02-28T15:00:24;13.50;99.90
43183;DHT22;28802;38.578;-0.066;2023-02-28T15:02:51;13.40;99.90
43183;DHT22;28802;38.578;-0.066;2023-02-28T15:05:30;13.10;99.90
43183;DHT22;28802;38.578;-0.066;2023-02-28T15:08:12;13.00;99.90
43183;DHT22;28802;38.578;-0.066;2023-02-28T15:10:44;13.00;99.90
43183;DHT22;28802;38.578;-0.066;2023-02-28T15:13:13;13.00;99.90
43183;DHT22;28802;38.578;-0.066;2023-02-28T15:18:20;13.00;99.90
43183;DHT22;28802;38.578;-0.066;2023-02-28T15:20:48;12.90;99.90
43183;DHT22;28802;38.578;-0.066;2023-02-28T15:23:15;12.80;99.90
43183;DHT22;28802;38.578;-0.066;2023-02-28T15:25:42;12.80;99.90
43183;DHT22;28802;38.578;-0.066;2023-02-28T15:28:17;12.80;99.90
43183;DHT22;28802;38.578;-0.066;2023-02-28T15:31:16;12.80;99.90
43183;DHT22;28802;38.578;-0.066;2023-02-28T15:33:54;12.60;99.90
43183;DHT22;28802;38.578;-0.066;2023-02-28T15:36:25;12.60;99.90
43183;DHT22;28802;38.578;-0.066;2023-02-28T15:38:53;13.00;99.90
43183;DHT22;28802;38.578;-0.066;2023-02-28T15:41:28;13.20;99.90
43183;DHT22;28802;38.578;-0.066;2023-02-28T15:47:00;13.20;99.90
43183;DHT22;28802;38.578;-0.066;2023-02-28T15:49:28;13.10;99.90
43183;DHT22;28802;38.578;-0.066;2023-02-28T15:51:58;13.20;99.90
43183;DHT22;28802;38.578;-0.066;2023-02-28T15:54:33;13.10;99.90
43183;DHT22;28802;38.578;-0.066;2023-02-28T15:57:10;13.10;99.90
43183;DHT22;28802;38.578;-0.066;2023-02-28T15:59:42;13.10;99.90
43183;DHT22;28802;38.578;-0.066;2023-02-28T16:02:20;13.20;99.90
43183;DHT22;28802;38.578;-0.066;2023-02-28T16:07:25;12.90;99.90
43183;DHT22;28802;38.578;-0.066;2023-02-28T16:09:51;12.80;99.90
43183;DHT22;28802;38.578;-0.066;2023-02-28T16:12:20;12.70;99.90
43183;DHT22;28802;38.578;-0.066;2023-02-28T16:14:48;12.60;99.90
43183;DHT22;28802;38.578;-0.066;2023-02-28T16:17:27;12.50;99.90
43183;DHT22;28802;38.578;-0.066;2023-02-28T16:19:54;12.40;99.90
43183;DHT22;28802;38.578;-0.066;2023-02-28T16:22:22;12.20;99.90
43183;DHT22;28802;38.578;-0.066;2023-02-28T16:24:48;12.20;99.90
43183;DHT22;28802;38.578;-0.066;2023-02-28T16:30:38;12.10;99.90
43183;DHT22;28802;38.578;-0.066;2023-02-28T16:33:47;12.10;99.90
43183;DHT22;28802;38.578;-0.066;2023-02-28T16:36:16;12.20;99.90
43183;DHT22;28802;38.578;-0.066;2023-02-28T16:38:42;12.10;99.90
43183;DHT22;28802;38.578;-0.066;2023-02-28T16:41:14;12.10;99.90
43183;DHT22;28802;38.578;-0.066;2023-02-28T16:43:49;12.20;99.90
43183;DHT22;28802;38.578;-0.066;2023-02-28T16:46:16;12.30;99.90
43183;DHT22;28802;38.578;-0.066;2023-02-28T16:48:45;12.10;99.90
43183;DHT22;28802;38.578;-0.066;2023-02-28T16:51:18;12.10;99.90
43183;DHT22;28802;38.578;-0.066;2023-02-28T16:53:57;12.20;99.90
43183;DHT22;28802;38.578;-0.066;2023-02-28T16:56:24;12.20;99.90
43183;DHT22;28802;38.578;-0.066;2023-02-28T16:58:58;12.20;99.90
43183;DHT22;28802;38.578;-0.066;2023-02-28T17:01:28;12.30;99.90
43183;DHT22;28802;38.578;-0.066;2023-02-28T17:03:54;12.20;99.90
43183;DHT22;28802;38.578;-0.066;2023-02-28T17:06:24;12.10;99.90
43183;DHT22;28802;38.578;-0.066;2023-02-28T17:08:51;12.00;99.90
43183;DHT22;28802;38.578;-0.066;2023-02-28T17:11:18;12.00;99.90
43183;DHT22;28802;38.578;-0.066;2023-02-28T17:13:44;12.00;99.90
43183;DHT22;28802;38.578;-0.066;2023-02-28T17:16:22;11.90;99.90
43183;DHT22;28802;38.578;-0.066;2023-02-28T17:18:50;11.90;99.90
43183;DHT22;28802;38.578;-0.066;2023-02-28T17:21:17;11.90;99.90
43183;DHT22;28802;38.578;-0.066;2023-02-28T17:23:46;11.80;99.90
43183;DHT22;28802;38.578;-0.066;2023-02-28T17:26:17;11.90;99.90
43183;DHT22;28802;38.578;-0.066;2023-02-28T17:28:47;11.80;99.90
43183;DHT22;28802;38.578;-0.066;2023-02-28T17:31:13;11.80;99.90
43183;DHT22;28802;38.578;-0.066;2023-02-28T17:33:40;11.80;99.90
43183;DHT22;28802;38.578;-0.066;2023-02-28T17:36:09;11.80;99.90
43183;DHT22;28802;38.578;-0.066;2023-02-28T17:38:36;11.80;99.90
43183;DHT22;28802;38.578;-0.066;2023-02-28T17:41:02;11.80;99.90
43183;DHT22;28802;38.578;-0.066;2023-02-28T17:43:28;11.80;99.90
43183;DHT22;28802;38.578;-0.066;2023-02-28T17:45:54;11.70;99.90
43183;DHT22;28802;38.578;-0.066;2023-02-28T17:48:21;11.60;99.90
43183;DHT22;28802;38.578;-0.066;2023-02-28T17:50:48;11.70;99.90
43183;DHT22;28802;38.578;-0.066;2023-02-28T17:53:14;11.70;99.90
43183;DHT22;28802;38.578;-0.066;2023-02-28T17:55:43;11.90;99.90
43183;DHT22;28802;38.578;-0.066;2023-02-28T17:58:11;11.90;99.90
43183;DHT22;28802;38.578;-0.066;2023-02-28T18:00:39;11.90;99.90
43183;DHT22;28802;38.578;-0.066;2023-02-28T18:03:06;11.80;99.90
43183;DHT22;28802;38.578;-0.066;2023-02-28T18:05:32;11.60;99.90
43183;DHT22;28802;38.578;-0.066;2023-02-28T18:07:58;11.70;99.90
43183;DHT22;28802;38.578;-0.066;2023-02-28T18:10:24;11.70;99.90
43183;DHT22;28802;38.578;-0.066;2023-02-28T18:12:53;11.40;99.90
43183;DHT22;28802;38.578;-0.066;2023-02-28T18:15:21;11.20;99.90
43183;DHT22;28802;38.578;-0.066;2023-02-28T18:17:49;11.10;99.90
43183;DHT22;28802;38.578;-0.066;2023-02-28T18:20:15;10.90;99.90
43183;DHT22;28802;38.578;-0.066;2023-02-28T18:22:42;10.80;99.90
43183;DHT22;28802;38.578;-0.066;2023-02-28T18:25:10;10.60;99.90